sensor_id;sensor_type;location;lat;lon;timestamp;P1;durP1;ratioP1;P2;durP2;ratioP2
36799;SDS011;22752;51.960;5.886;2023-05-14T00:00:43;9.88;;;7.20;;
36799;SDS011;22752;51.960;5.886;2023-05-14T00:03:08;11.00;;;8.15;;
36799;SDS011;22752;51.960;5.886;2023-05-14T00:05:34;14.77;;;8.27;;
36799;SDS011;22752;51.960;5.886;2023-05-14T00:07:59;15.77;;;9.00;;
36799;SDS011;22752;51.960;5.886;2023-05-14T00:10:25;14.02;;;7.63;;
36799;SDS011;22752;51.960;5.886;2023-05-14T00:12:51;12.90;;;8.45;;
36799;SDS011;22752;51.960;5.886;2023-05-14T00:15:17;13.63;;;8.13;;
36799;SDS011;22752;51.960;5.886;2023-05-14T00:17:43;11.73;;;8.38;;
36799;SDS011;22752;51.960;5.886;2023-05-14T00:20:09;13.00;;;8.70;;
36799;SDS011;22752;51.960;5.886;2023-05-14T00:22:36;13.27;;;9.07;;
36799;SDS011;22752;51.960;5.886;2023-05-14T00:25:02;11.40;;;8.40;;
36799;SDS011;22752;51.960;5.886;2023-05-14T00:27:28;11.95;;;8.90;;
36799;SDS011;22752;51.960;5.886;2023-05-14T00:29:54;16.75;;;9.80;;
36799;SDS011;22752;51.960;5.886;2023-05-14T00:32:19;13.32;;;10.02;;
36799;SDS011;22752;51.960;5.886;2023-05-14T00:34:45;15.63;;;9.35;;
36799;SDS011;22752;51.960;5.886;2023-05-14T00:37:11;10.82;;;8.50;;
36799;SDS011;22752;51.960;5.886;2023-05-14T00:39:37;14.10;;;8.48;;
36799;SDS011;22752;51.960;5.886;2023-05-14T00:42:02;12.43;;;8.55;;
36799;SDS011;22752;51.960;5.886;2023-05-14T00:44:28;12.90;;;8.30;;
36799;SDS011;22752;51.960;5.886;2023-05-14T00:46:54;15.45;;;9.05;;
36799;SDS011;22752;51.960;5.886;2023-05-14T00:49:19;13.88;;;9.30;;
36799;SDS011;22752;51.960;5.886;2023-05-14T00:51:45;13.60;;;8.82;;
36799;SDS011;22752;51.960;5.886;2023-05-14T00:54:14;13.98;;;9.50;;
36799;SDS011;22752;51.960;5.886;2023-05-14T00:56:42;14.88;;;8.75;;
36799;SDS011;22752;51.960;5.886;2023-05-14T00:59:09;15.57;;;8.85;;
36799;SDS011;22752;51.960;5.886;2023-05-14T01:01:35;13.80;;;9.20;;
36799;SDS011;22752;51.960;5.886;2023-05-14T01:04:01;16.90;;;10.63;;
36799;SDS011;22752;51.960;5.886;2023-05-14T01:14:36;12.23;;;9.32;;
36799;SDS011;22752;51.960;5.886;2023-05-14T01:17:27;13.80;;;8.63;;
36799;SDS011;22752;51.960;5.886;2023-05-14T01:19:54;10.73;;;7.93;;
36799;SDS011;22752;51.960;5.886;2023-05-14T01:22:22;9.93;;;7.43;;
36799;SDS011;22752;51.960;5.886;2023-05-14T01:24:47;11.23;;;8.05;;
36799;SDS011;22752;51.960;5.886;2023-05-14T01:27:17;12.73;;;8.57;;
36799;SDS011;22752;51.960;5.886;2023-05-14T01:29:57;11.63;;;7.68;;
36799;SDS011;22752;51.960;5.886;2023-05-14T01:32:34;10.93;;;8.00;;
36799;SDS011;22752;51.960;5.886;2023-05-14T01:35:00;13.07;;;8.50;;
36799;SDS011;22752;51.960;5.886;2023-05-14T01:37:27;10.85;;;8.25;;
36799;SDS011;22752;51.960;5.886;2023-05-14T01:39:55;10.02;;;7.97;;
36799;SDS011;22752;51.960;5.886;2023-05-14T01:42:21;12.52;;;8.13;;
36799;SDS011;22752;51.960;5.886;2023-05-14T01:44:47;9.50;;;8.10;;
36799;SDS011;22752;51.960;5.886;2023-05-14T01:47:13;15.40;;;9.02;;
36799;SDS011;22752;51.960;5.886;2023-05-14T01:49:39;10.45;;;7.95;;
36799;SDS011;22752;51.960;5.886;2023-05-14T01:52:05;12.18;;;8.77;;
36799;SDS011;22752;51.960;5.886;2023-05-14T01:54:32;14.90;;;9.35;;
36799;SDS011;22752;51.960;5.886;2023-05-14T01:56:58;13.57;;;10.35;;
36799;SDS011;22752;51.960;5.886;2023-05-14T01:59:23;14.63;;;9.68;;
36799;SDS011;22752;51.960;5.886;2023-05-14T02:01:49;16.20;;;11.60;;
36799;SDS011;22752;51.960;5.886;2023-05-14T02:04:15;13.05;;;9.73;;
36799;SDS011;22752;51.960;5.886;2023-05-14T02:06:40;11.88;;;8.98;;
36799;SDS011;22752;51.960;5.886;2023-05-14T02:09:06;15.43;;;10.32;;
36799;SDS011;22752;51.960;5.886;2023-05-14T02:11:32;13.77;;;9.55;;
36799;SDS011;22752;51.960;5.886;2023-05-14T02:13:57;10.85;;;8.93;;
36799;SDS011;22752;51.960;5.886;2023-05-14T02:16:23;13.60;;;8.50;;
36799;SDS011;22752;51.960;5.886;2023-05-14T02:18:48;10.93;;;8.52;;
36799;SDS011;22752;51.960;5.886;2023-05-14T02:21:14;10.23;;;8.63;;
36799;SDS011;22752;51.960;5.886;2023-05-14T02:23:40;12.60;;;8.38;;
36799;SDS011;22752;51.960;5.886;2023-05-14T02:26:07;11.80;;;8.90;;
36799;SDS011;22752;51.960;5.886;2023-05-14T02:28:33;11.27;;;8.82;;
36799;SDS011;22752;51.960;5.886;2023-05-14T02:30:59;11.30;;;9.27;;
36799;SDS011;22752;51.960;5.886;2023-05-14T02:33:25;13.52;;;9.38;;
36799;SDS011;22752;51.960;5.886;2023-05-14T02:35:51;12.98;;;8.65;;
36799;SDS011;22752;51.960;5.886;2023-05-14T02:38:17;10.75;;;8.13;;
36799;SDS011;22752;51.960;5.886;2023-05-14T02:40:43;10.20;;;7.57;;
36799;SDS011;22752;51.960;5.886;2023-05-14T02:43:09;11.48;;;7.00;;
36799;SDS011;22752;51.960;5.886;2023-05-14T02:45:34;12.07;;;10.13;;
36799;SDS011;22752;51.960;5.886;2023-05-14T02:48:00;13.10;;;9.20;;
36799;SDS011;22752;51.960;5.886;2023-05-14T02:50:26;10.63;;;8.30;;
36799;SDS011;22752;51.960;5.886;2023-05-14T02:52:51;13.43;;;9.07;;
36799;SDS011;22752;51.960;5.886;2023-05-14T02:55:17;19.67;;;10.50;;
36799;SDS011;22752;51.960;5.886;2023-05-14T02:57:43;16.17;;;10.88;;
36799;SDS011;22752;51.960;5.886;2023-05-14T03:00:08;13.43;;;10.23;;
36799;SDS011;22752;51.960;5.886;2023-05-14T03:02:35;11.20;;;9.20;;
36799;SDS011;22752;51.960;5.886;2023-05-14T03:05:01;13.05;;;10.35;;
36799;SDS011;22752;51.960;5.886;2023-05-14T03:07:27;13.25;;;10.38;;
36799;SDS011;22752;51.960;5.886;2023-05-14T03:09:53;17.00;;;11.65;;
36799;SDS011;22752;51.960;5.886;2023-05-14T03:12:18;17.33;;;12.05;;
36799;SDS011;22752;51.960;5.886;2023-05-14T03:14:45;18.23;;;13.40;;
36799;SDS011;22752;51.960;5.886;2023-05-14T03:17:10;15.65;;;11.85;;
36799;SDS011;22752;51.960;5.886;2023-05-14T03:19:36;13.85;;;10.65;;
36799;SDS011;22752;51.960;5.886;2023-05-14T03:22:02;15.48;;;12.90;;
36799;SDS011;22752;51.960;5.886;2023-05-14T03:24:27;17.23;;;11.77;;
36799;SDS011;22752;51.960;5.886;2023-05-14T03:26:54;13.50;;;11.38;;
36799;SDS011;22752;51.960;5.886;2023-05-14T03:29:19;13.65;;;10.20;;
36799;SDS011;22752;51.960;5.886;2023-05-14T03:31:45;12.85;;;10.60;;
36799;SDS011;22752;51.960;5.886;2023-05-14T03:34:11;15.15;;;10.73;;
36799;SDS011;22752;51.960;5.886;2023-05-14T03:36:36;16.67;;;11.70;;
36799;SDS011;22752;51.960;5.886;2023-05-14T03:39:03;16.02;;;10.77;;
36799;SDS011;22752;51.960;5.886;2023-05-14T03:41:30;17.75;;;12.73;;
36799;SDS011;22752;51.960;5.886;2023-05-14T03:43:56;18.73;;;11.50;;
36799;SDS011;22752;51.960;5.886;2023-05-14T03:46:22;14.25;;;12.35;;
36799;SDS011;22752;51.960;5.886;2023-05-14T03:48:48;13.35;;;11.73;;
36799;SDS011;22752;51.960;5.886;2023-05-14T03:51:13;11.45;;;9.70;;
36799;SDS011;22752;51.960;5.886;2023-05-14T03:53:39;13.23;;;9.82;;
36799;SDS011;22752;51.960;5.886;2023-05-14T03:56:05;15.98;;;11.88;;
36799;SDS011;22752;51.960;5.886;2023-05-14T03:58:31;12.00;;;10.13;;
36799;SDS011;22752;51.960;5.886;2023-05-14T04:00:56;12.85;;;10.65;;
36799;SDS011;22752;51.960;5.886;2023-05-14T04:03:22;14.63;;;10.55;;
36799;SDS011;22752;51.960;5.886;2023-05-14T04:05:49;15.55;;;12.00;;
36799;SDS011;22752;51.960;5.886;2023-05-14T04:08:15;13.80;;;10.77;;
36799;SDS011;22752;51.960;5.886;2023-05-14T04:10:41;14.60;;;11.00;;
36799;SDS011;22752;51.960;5.886;2023-05-14T04:13:07;13.38;;;10.73;;
36799;SDS011;22752;51.960;5.886;2023-05-14T04:15:33;13.40;;;10.90;;
36799;SDS011;22752;51.960;5.886;2023-05-14T04:17:59;11.88;;;10.32;;
36799;SDS011;22752;51.960;5.886;2023-05-14T04:20:25;14.32;;;11.35;;
36799;SDS011;22752;51.960;5.886;2023-05-14T04:22:52;18.77;;;12.63;;
36799;SDS011;22752;51.960;5.886;2023-05-14T04:25:18;14.32;;;11.55;;
36799;SDS011;22752;51.960;5.886;2023-05-14T04:27:44;17.10;;;13.48;;
36799;SDS011;22752;51.960;5.886;2023-05-14T04:30:10;17.33;;;13.80;;
36799;SDS011;22752;51.960;5.886;2023-05-14T04:32:36;21.95;;;15.40;;
36799;SDS011;22752;51.960;5.886;2023-05-14T04:35:02;22.45;;;16.00;;
36799;SDS011;22752;51.960;5.886;2023-05-14T04:37:28;20.88;;;15.73;;
36799;SDS011;22752;51.960;5.886;2023-05-14T04:39:55;19.83;;;15.43;;
36799;SDS011;22752;51.960;5.886;2023-05-14T04:42:20;21.95;;;16.63;;
36799;SDS011;22752;51.960;5.886;2023-05-14T04:44:46;25.33;;;16.77;;
36799;SDS011;22752;51.960;5.886;2023-05-14T04:47:12;26.27;;;16.08;;
36799;SDS011;22752;51.960;5.886;2023-05-14T04:49:37;19.83;;;15.23;;
36799;SDS011;22752;51.960;5.886;2023-05-14T04:52:03;20.42;;;13.95;;
36799;SDS011;22752;51.960;5.886;2023-05-14T04:54:29;21.58;;;14.20;;
36799;SDS011;22752;51.960;5.886;2023-05-14T04:56:55;21.88;;;15.32;;
36799;SDS011;22752;51.960;5.886;2023-05-14T04:59:20;18.73;;;14.30;;
36799;SDS011;22752;51.960;5.886;2023-05-14T05:01:46;20.75;;;14.43;;
36799;SDS011;22752;51.960;5.886;2023-05-14T05:04:12;22.73;;;16.02;;
36799;SDS011;22752;51.960;5.886;2023-05-14T05:06:37;22.67;;;14.48;;
36799;SDS011;22752;51.960;5.886;2023-05-14T05:09:03;16.60;;;12.32;;
36799;SDS011;22752;51.960;5.886;2023-05-14T05:11:29;13.05;;;11.15;;
36799;SDS011;22752;51.960;5.886;2023-05-14T05:13:54;15.13;;;11.30;;
36799;SDS011;22752;51.960;5.886;2023-05-14T05:16:20;16.15;;;11.23;;
36799;SDS011;22752;51.960;5.886;2023-05-14T05:18:45;15.20;;;10.57;;
36799;SDS011;22752;51.960;5.886;2023-05-14T05:21:11;14.43;;;10.35;;
36799;SDS011;22752;51.960;5.886;2023-05-14T05:23:37;13.68;;;8.82;;
36799;SDS011;22752;51.960;5.886;2023-05-14T05:26:02;14.85;;;10.07;;
36799;SDS011;22752;51.960;5.886;2023-05-14T05:28:28;13.63;;;9.75;;
36799;SDS011;22752;51.960;5.886;2023-05-14T05:30:54;13.93;;;8.70;;
36799;SDS011;22752;51.960;5.886;2023-05-14T05:33:19;11.90;;;8.40;;
36799;SDS011;22752;51.960;5.886;2023-05-14T05:35:45;13.75;;;8.55;;
36799;SDS011;22752;51.960;5.886;2023-05-14T05:38:12;11.50;;;8.30;;
36799;SDS011;22752;51.960;5.886;2023-05-14T05:40:39;12.02;;;8.40;;
36799;SDS011;22752;51.960;5.886;2023-05-14T05:43:05;17.17;;;10.13;;
36799;SDS011;22752;51.960;5.886;2023-05-14T05:45:30;11.05;;;8.02;;
36799;SDS011;22752;51.960;5.886;2023-05-14T05:47:56;13.73;;;9.55;;
36799;SDS011;22752;51.960;5.886;2023-05-14T05:50:22;8.63;;;7.20;;
36799;SDS011;22752;51.960;5.886;2023-05-14T05:52:48;14.57;;;8.45;;
36799;SDS011;22752;51.960;5.886;2023-05-14T05:55:14;11.85;;;9.32;;
36799;SDS011;22752;51.960;5.886;2023-05-14T05:57:39;12.93;;;8.65;;
36799;SDS011;22752;51.960;5.886;2023-05-14T06:00:05;13.48;;;8.57;;
36799;SDS011;22752;51.960;5.886;2023-05-14T06:02:37;14.07;;;8.45;;
36799;SDS011;22752;51.960;5.886;2023-05-14T06:05:03;14.63;;;8.60;;
36799;SDS011;22752;51.960;5.886;2023-05-14T06:07:30;13.20;;;8.85;;
36799;SDS011;22752;51.960;5.886;2023-05-14T06:09:55;12.95;;;7.93;;
36799;SDS011;22752;51.960;5.886;2023-05-14T06:12:21;12.18;;;7.35;;
36799;SDS011;22752;51.960;5.886;2023-05-14T06:14:46;11.23;;;8.10;;
36799;SDS011;22752;51.960;5.886;2023-05-14T06:17:12;13.48;;;9.07;;
36799;SDS011;22752;51.960;5.886;2023-05-14T06:19:37;10.75;;;7.78;;
36799;SDS011;22752;51.960;5.886;2023-05-14T06:22:03;16.80;;;9.43;;
36799;SDS011;22752;51.960;5.886;2023-05-14T06:24:29;11.68;;;7.60;;
36799;SDS011;22752;51.960;5.886;2023-05-14T06:26:55;10.00;;;6.95;;
36799;SDS011;22752;51.960;5.886;2023-05-14T06:29:20;11.18;;;7.40;;
36799;SDS011;22752;51.960;5.886;2023-05-14T06:31:46;10.15;;;7.88;;
36799;SDS011;22752;51.960;5.886;2023-05-14T06:34:12;12.88;;;6.78;;
36799;SDS011;22752;51.960;5.886;2023-05-14T06:36:38;10.82;;;7.75;;
36799;SDS011;22752;51.960;5.886;2023-05-14T06:39:04;14.73;;;7.95;;
36799;SDS011;22752;51.960;5.886;2023-05-14T06:41:30;10.98;;;7.25;;
36799;SDS011;22752;51.960;5.886;2023-05-14T06:43:55;8.98;;;5.80;;
36799;SDS011;22752;51.960;5.886;2023-05-14T06:46:21;10.90;;;6.60;;
36799;SDS011;22752;51.960;5.886;2023-05-14T06:48:47;18.23;;;7.75;;
36799;SDS011;22752;51.960;5.886;2023-05-14T06:51:13;10.75;;;7.85;;
36799;SDS011;22752;51.960;5.886;2023-05-14T06:53:39;12.38;;;7.05;;
36799;SDS011;22752;51.960;5.886;2023-05-14T06:56:05;12.75;;;7.55;;
36799;SDS011;22752;51.960;5.886;2023-05-14T06:58:30;11.05;;;6.60;;
36799;SDS011;22752;51.960;5.886;2023-05-14T07:00:56;10.88;;;7.20;;
36799;SDS011;22752;51.960;5.886;2023-05-14T07:03:22;9.50;;;6.35;;
36799;SDS011;22752;51.960;5.886;2023-05-14T07:05:48;11.65;;;7.05;;
36799;SDS011;22752;51.960;5.886;2023-05-14T07:08:14;12.88;;;7.20;;
36799;SDS011;22752;51.960;5.886;2023-05-14T07:10:39;11.05;;;6.50;;
36799;SDS011;22752;51.960;5.886;2023-05-14T07:13:05;11.23;;;6.60;;
36799;SDS011;22752;51.960;5.886;2023-05-14T07:15:32;10.93;;;6.22;;
36799;SDS011;22752;51.960;5.886;2023-05-14T07:17:58;15.05;;;6.47;;
36799;SDS011;22752;51.960;5.886;2023-05-14T07:20:23;10.02;;;6.20;;
36799;SDS011;22752;51.960;5.886;2023-05-14T07:22:50;9.80;;;6.15;;
36799;SDS011;22752;51.960;5.886;2023-05-14T07:25:16;10.30;;;6.93;;
36799;SDS011;22752;51.960;5.886;2023-05-14T07:27:42;10.65;;;6.70;;
36799;SDS011;22752;51.960;5.886;2023-05-14T07:30:08;13.77;;;7.28;;
36799;SDS011;22752;51.960;5.886;2023-05-14T07:32:34;7.13;;;4.88;;
36799;SDS011;22752;51.960;5.886;2023-05-14T07:34:59;7.70;;;5.85;;
36799;SDS011;22752;51.960;5.886;2023-05-14T07:37:25;6.93;;;5.25;;
36799;SDS011;22752;51.960;5.886;2023-05-14T07:39:51;8.60;;;6.55;;
36799;SDS011;22752;51.960;5.886;2023-05-14T07:42:17;11.02;;;6.07;;
36799;SDS011;22752;51.960;5.886;2023-05-14T07:44:43;9.13;;;6.32;;
36799;SDS011;22752;51.960;5.886;2023-05-14T07:47:09;9.30;;;5.63;;
36799;SDS011;22752;51.960;5.886;2023-05-14T07:49:35;7.35;;;4.53;;
36799;SDS011;22752;51.960;5.886;2023-05-14T07:52:01;8.18;;;4.70;;
36799;SDS011;22752;51.960;5.886;2023-05-14T07:54:26;10.90;;;5.72;;
36799;SDS011;22752;51.960;5.886;2023-05-14T07:56:52;6.03;;;4.30;;
36799;SDS011;22752;51.960;5.886;2023-05-14T07:59:18;7.07;;;4.78;;
36799;SDS011;22752;51.960;5.886;2023-05-14T08:01:43;7.93;;;4.38;;
36799;SDS011;22752;51.960;5.886;2023-05-14T08:04:09;9.23;;;4.97;;
36799;SDS011;22752;51.960;5.886;2023-05-14T08:06:40;6.38;;;4.57;;
36799;SDS011;22752;51.960;5.886;2023-05-14T08:09:06;8.80;;;5.03;;
36799;SDS011;22752;51.960;5.886;2023-05-14T08:11:32;7.53;;;4.80;;
36799;SDS011;22752;51.960;5.886;2023-05-14T08:13:58;8.23;;;4.22;;
36799;SDS011;22752;51.960;5.886;2023-05-14T08:16:24;7.05;;;4.68;;
36799;SDS011;22752;51.960;5.886;2023-05-14T08:18:50;8.05;;;4.10;;
36799;SDS011;22752;51.960;5.886;2023-05-14T08:21:16;9.32;;;3.40;;
36799;SDS011;22752;51.960;5.886;2023-05-14T08:23:41;8.23;;;4.13;;
36799;SDS011;22752;51.960;5.886;2023-05-14T08:26:07;6.18;;;4.13;;
36799;SDS011;22752;51.960;5.886;2023-05-14T08:28:33;8.70;;;4.65;;
36799;SDS011;22752;51.960;5.886;2023-05-14T08:30:59;6.63;;;3.67;;
36799;SDS011;22752;51.960;5.886;2023-05-14T08:33:24;8.90;;;3.75;;
36799;SDS011;22752;51.960;5.886;2023-05-14T08:35:51;7.00;;;3.70;;
36799;SDS011;22752;51.960;5.886;2023-05-14T08:38:18;9.23;;;3.67;;
36799;SDS011;22752;51.960;5.886;2023-05-14T08:40:56;7.68;;;3.70;;
36799;SDS011;22752;51.960;5.886;2023-05-14T08:43:26;5.95;;;3.35;;
36799;SDS011;22752;51.960;5.886;2023-05-14T08:45:59;7.07;;;3.80;;
36799;SDS011;22752;51.960;5.886;2023-05-14T08:48:30;4.90;;;3.25;;
36799;SDS011;22752;51.960;5.886;2023-05-14T08:51:01;7.93;;;3.45;;
36799;SDS011;22752;51.960;5.886;2023-05-14T08:53:27;6.93;;;3.15;;
36799;SDS011;22752;51.960;5.886;2023-05-14T08:55:54;3.97;;;2.80;;
36799;SDS011;22752;51.960;5.886;2023-05-14T08:58:20;6.63;;;3.13;;
36799;SDS011;22752;51.960;5.886;2023-05-14T09:00:46;4.15;;;2.88;;
36799;SDS011;22752;51.960;5.886;2023-05-14T09:03:11;6.47;;;2.85;;
36799;SDS011;22752;51.960;5.886;2023-05-14T09:05:38;5.28;;;3.42;;
36799;SDS011;22752;51.960;5.886;2023-05-14T09:08:05;5.43;;;3.08;;
36799;SDS011;22752;51.960;5.886;2023-05-14T09:10:31;4.55;;;2.70;;
36799;SDS011;22752;51.960;5.886;2023-05-14T09:12:56;4.55;;;2.83;;
36799;SDS011;22752;51.960;5.886;2023-05-14T09:15:22;4.68;;;3.03;;
36799;SDS011;22752;51.960;5.886;2023-05-14T09:17:51;4.60;;;2.85;;
36799;SDS011;22752;51.960;5.886;2023-05-14T09:20:17;4.93;;;3.00;;
36799;SDS011;22752;51.960;5.886;2023-05-14T09:22:43;5.80;;;2.50;;
36799;SDS011;22752;51.960;5.886;2023-05-14T09:25:09;4.72;;;2.83;;
36799;SDS011;22752;51.960;5.886;2023-05-14T09:27:36;5.00;;;2.78;;
36799;SDS011;22752;51.960;5.886;2023-05-14T09:32:36;6.88;;;2.40;;
36799;SDS011;22752;51.960;5.886;2023-05-14T09:35:09;4.30;;;2.67;;
36799;SDS011;22752;51.960;5.886;2023-05-14T09:37:43;8.48;;;2.95;;
36799;SDS011;22752;51.960;5.886;2023-05-14T09:40:13;3.28;;;2.50;;
36799;SDS011;22752;51.960;5.886;2023-05-14T09:42:39;5.15;;;2.70;;
36799;SDS011;22752;51.960;5.886;2023-05-14T09:45:06;4.95;;;2.95;;
36799;SDS011;22752;51.960;5.886;2023-05-14T09:47:33;5.13;;;2.55;;
36799;SDS011;22752;51.960;5.886;2023-05-14T09:49:59;25.38;;;2.58;;
36799;SDS011;22752;51.960;5.886;2023-05-14T09:52:25;4.43;;;2.25;;
36799;SDS011;22752;51.960;5.886;2023-05-14T09:54:51;6.57;;;2.40;;
36799;SDS011;22752;51.960;5.886;2023-05-14T09:57:17;3.90;;;2.55;;
36799;SDS011;22752;51.960;5.886;2023-05-14T09:59:43;5.25;;;2.75;;
36799;SDS011;22752;51.960;5.886;2023-05-14T10:02:11;3.22;;;2.20;;
36799;SDS011;22752;51.960;5.886;2023-05-14T10:04:44;6.00;;;2.60;;
36799;SDS011;22752;51.960;5.886;2023-05-14T10:07:11;4.88;;;2.60;;
36799;SDS011;22752;51.960;5.886;2023-05-14T10:09:38;4.25;;;2.33;;
36799;SDS011;22752;51.960;5.886;2023-05-14T10:12:06;5.47;;;2.53;;
36799;SDS011;22752;51.960;5.886;2023-05-14T10:14:35;4.90;;;2.33;;
36799;SDS011;22752;51.960;5.886;2023-05-14T10:17:05;6.03;;;2.30;;
36799;SDS011;22752;51.960;5.886;2023-05-14T10:19:32;3.45;;;2.15;;
36799;SDS011;22752;51.960;5.886;2023-05-14T10:22:05;6.10;;;2.40;;
36799;SDS011;22752;51.960;5.886;2023-05-14T10:24:32;4.88;;;2.65;;
36799;SDS011;22752;51.960;5.886;2023-05-14T10:26:58;4.93;;;2.67;;
36799;SDS011;22752;51.960;5.886;2023-05-14T10:29:34;9.35;;;2.70;;
36799;SDS011;22752;51.960;5.886;2023-05-14T10:32:05;6.18;;;2.50;;
36799;SDS011;22752;51.960;5.886;2023-05-14T10:34:32;8.32;;;3.05;;
36799;SDS011;22752;51.960;5.886;2023-05-14T10:37:06;5.63;;;2.70;;
36799;SDS011;22752;51.960;5.886;2023-05-14T10:39:49;7.80;;;3.33;;
36799;SDS011;22752;51.960;5.886;2023-05-14T10:42:25;5.43;;;2.80;;
36799;SDS011;22752;51.960;5.886;2023-05-14T10:47:26;3.25;;;1.98;;
36799;SDS011;22752;51.960;5.886;2023-05-14T10:49:56;4.90;;;2.65;;
36799;SDS011;22752;51.960;5.886;2023-05-14T10:52:24;4.20;;;2.35;;
36799;SDS011;22752;51.960;5.886;2023-05-14T10:57:23;4.33;;;2.70;;
36799;SDS011;22752;51.960;5.886;2023-05-14T10:59:51;4.70;;;2.80;;
36799;SDS011;22752;51.960;5.886;2023-05-14T11:04:55;4.60;;;2.10;;
36799;SDS011;22752;51.960;5.886;2023-05-14T11:07:33;5.68;;;3.40;;
36799;SDS011;22752;51.960;5.886;2023-05-14T11:10:04;8.35;;;3.38;;
36799;SDS011;22752;51.960;5.886;2023-05-14T11:12:32;6.13;;;2.92;;
36799;SDS011;22752;51.960;5.886;2023-05-14T11:14:59;4.72;;;3.33;;
36799;SDS011;22752;51.960;5.886;2023-05-14T11:17:26;5.25;;;2.75;;
36799;SDS011;22752;51.960;5.886;2023-05-14T11:19:53;5.47;;;2.60;;
36799;SDS011;22752;51.960;5.886;2023-05-14T11:22:19;5.13;;;2.70;;
36799;SDS011;22752;51.960;5.886;2023-05-14T11:24:45;5.15;;;3.05;;
36799;SDS011;22752;51.960;5.886;2023-05-14T11:27:11;7.57;;;3.72;;
36799;SDS011;22752;51.960;5.886;2023-05-14T11:29:37;6.68;;;3.72;;
36799;SDS011;22752;51.960;5.886;2023-05-14T11:32:06;5.43;;;3.63;;
36799;SDS011;22752;51.960;5.886;2023-05-14T11:34:32;6.70;;;3.80;;
36799;SDS011;22752;51.960;5.886;2023-05-14T11:37:01;7.30;;;3.88;;
36799;SDS011;22752;51.960;5.886;2023-05-14T11:39:30;6.63;;;3.13;;
36799;SDS011;22752;51.960;5.886;2023-05-14T11:42:01;7.63;;;3.45;;
36799;SDS011;22752;51.960;5.886;2023-05-14T11:44:28;8.98;;;3.40;;
36799;SDS011;22752;51.960;5.886;2023-05-14T11:46:55;5.55;;;3.40;;
36799;SDS011;22752;51.960;5.886;2023-05-14T11:49:22;6.38;;;3.50;;
36799;SDS011;22752;51.960;5.886;2023-05-14T11:51:49;5.32;;;2.90;;
36799;SDS011;22752;51.960;5.886;2023-05-14T11:54:21;4.85;;;2.80;;
36799;SDS011;22752;51.960;5.886;2023-05-14T11:56:49;8.63;;;2.30;;
36799;SDS011;22752;51.960;5.886;2023-05-14T11:59:15;4.70;;;2.50;;
36799;SDS011;22752;51.960;5.886;2023-05-14T12:01:43;2.88;;;2.35;;
36799;SDS011;22752;51.960;5.886;2023-05-14T12:04:11;2.90;;;2.03;;
36799;SDS011;22752;51.960;5.886;2023-05-14T12:06:38;3.15;;;2.30;;
36799;SDS011;22752;51.960;5.886;2023-05-14T12:09:04;5.20;;;2.58;;
36799;SDS011;22752;51.960;5.886;2023-05-14T12:11:30;4.22;;;2.33;;
36799;SDS011;22752;51.960;5.886;2023-05-14T12:13:57;3.60;;;2.20;;
36799;SDS011;22752;51.960;5.886;2023-05-14T12:16:28;4.03;;;2.13;;
36799;SDS011;22752;51.960;5.886;2023-05-14T12:18:58;3.38;;;2.17;;
36799;SDS011;22752;51.960;5.886;2023-05-14T12:21:25;5.38;;;2.58;;
36799;SDS011;22752;51.960;5.886;2023-05-14T12:23:58;3.58;;;1.88;;
36799;SDS011;22752;51.960;5.886;2023-05-14T12:26:26;3.92;;;2.50;;
36799;SDS011;22752;51.960;5.886;2023-05-14T12:28:59;4.55;;;2.47;;
36799;SDS011;22752;51.960;5.886;2023-05-14T12:31:32;3.70;;;2.20;;
36799;SDS011;22752;51.960;5.886;2023-05-14T12:33:59;2.92;;;2.28;;
36799;SDS011;22752;51.960;5.886;2023-05-14T12:36:24;4.88;;;2.70;;
36799;SDS011;22752;51.960;5.886;2023-05-14T12:38:56;6.20;;;2.70;;
36799;SDS011;22752;51.960;5.886;2023-05-14T12:41:24;7.65;;;2.88;;
36799;SDS011;22752;51.960;5.886;2023-05-14T12:43:50;7.38;;;3.28;;
36799;SDS011;22752;51.960;5.886;2023-05-14T12:46:15;7.85;;;3.28;;
36799;SDS011;22752;51.960;5.886;2023-05-14T12:48:41;4.72;;;3.00;;
36799;SDS011;22752;51.960;5.886;2023-05-14T12:51:07;6.43;;;3.05;;
36799;SDS011;22752;51.960;5.886;2023-05-14T12:53:32;5.88;;;3.30;;
36799;SDS011;22752;51.960;5.886;2023-05-14T12:55:59;5.82;;;3.05;;
36799;SDS011;22752;51.960;5.886;2023-05-14T12:58:25;10.68;;;3.03;;
36799;SDS011;22752;51.960;5.886;2023-05-14T13:00:50;8.80;;;3.53;;
36799;SDS011;22752;51.960;5.886;2023-05-14T13:03:16;7.00;;;3.10;;
36799;SDS011;22752;51.960;5.886;2023-05-14T13:05:42;6.68;;;2.72;;
36799;SDS011;22752;51.960;5.886;2023-05-14T13:08:07;8.88;;;3.78;;
36799;SDS011;22752;51.960;5.886;2023-05-14T13:10:33;4.95;;;2.60;;
36799;SDS011;22752;51.960;5.886;2023-05-14T13:12:59;5.20;;;2.92;;
36799;SDS011;22752;51.960;5.886;2023-05-14T13:15:26;5.07;;;2.65;;
36799;SDS011;22752;51.960;5.886;2023-05-14T13:17:52;10.57;;;3.33;;
36799;SDS011;22752;51.960;5.886;2023-05-14T13:20:18;8.60;;;3.00;;
36799;SDS011;22752;51.960;5.886;2023-05-14T13:22:43;4.95;;;2.33;;
36799;SDS011;22752;51.960;5.886;2023-05-14T13:25:09;7.45;;;3.03;;
36799;SDS011;22752;51.960;5.886;2023-05-14T13:27:35;5.93;;;2.47;;
36799;SDS011;22752;51.960;5.886;2023-05-14T13:30:01;3.90;;;2.50;;
36799;SDS011;22752;51.960;5.886;2023-05-14T13:32:28;4.75;;;2.38;;
36799;SDS011;22752;51.960;5.886;2023-05-14T13:34:54;4.22;;;2.42;;
36799;SDS011;22752;51.960;5.886;2023-05-14T13:37:19;5.72;;;2.50;;
36799;SDS011;22752;51.960;5.886;2023-05-14T13:39:45;4.38;;;2.35;;
36799;SDS011;22752;51.960;5.886;2023-05-14T13:42:10;5.88;;;2.38;;
36799;SDS011;22752;51.960;5.886;2023-05-14T13:44:36;9.82;;;3.10;;
36799;SDS011;22752;51.960;5.886;2023-05-14T13:47:02;2.95;;;2.00;;
36799;SDS011;22752;51.960;5.886;2023-05-14T13:49:28;4.25;;;2.42;;
36799;SDS011;22752;51.960;5.886;2023-05-14T13:51:54;7.45;;;2.72;;
36799;SDS011;22752;51.960;5.886;2023-05-14T13:54:19;5.20;;;2.15;;
36799;SDS011;22752;51.960;5.886;2023-05-14T13:56:46;3.80;;;2.20;;
36799;SDS011;22752;51.960;5.886;2023-05-14T13:59:11;5.53;;;2.35;;
36799;SDS011;22752;51.960;5.886;2023-05-14T14:01:37;4.82;;;2.50;;
36799;SDS011;22752;51.960;5.886;2023-05-14T14:04:03;3.60;;;2.03;;
36799;SDS011;22752;51.960;5.886;2023-05-14T14:06:29;5.72;;;2.50;;
36799;SDS011;22752;51.960;5.886;2023-05-14T14:08:56;4.32;;;2.10;;
36799;SDS011;22752;51.960;5.886;2023-05-14T14:11:22;4.85;;;2.22;;
36799;SDS011;22752;51.960;5.886;2023-05-14T14:13:47;5.80;;;2.63;;
36799;SDS011;22752;51.960;5.886;2023-05-14T14:16:13;4.35;;;2.50;;
36799;SDS011;22752;51.960;5.886;2023-05-14T14:18:40;4.72;;;2.78;;
36799;SDS011;22752;51.960;5.886;2023-05-14T14:21:07;5.95;;;2.55;;
36799;SDS011;22752;51.960;5.886;2023-05-14T14:23:33;6.60;;;2.55;;
36799;SDS011;22752;51.960;5.886;2023-05-14T14:25:59;3.33;;;2.28;;
36799;SDS011;22752;51.960;5.886;2023-05-14T14:28:24;4.00;;;2.53;;
36799;SDS011;22752;51.960;5.886;2023-05-14T14:30:50;5.70;;;2.60;;
36799;SDS011;22752;51.960;5.886;2023-05-14T14:33:16;6.95;;;2.90;;
36799;SDS011;22752;51.960;5.886;2023-05-14T14:35:41;5.03;;;2.40;;
36799;SDS011;22752;51.960;5.886;2023-05-14T14:38:07;3.67;;;2.22;;
36799;SDS011;22752;51.960;5.886;2023-05-14T14:40:33;6.13;;;2.70;;
36799;SDS011;22752;51.960;5.886;2023-05-14T14:42:59;6.68;;;3.10;;
36799;SDS011;22752;51.960;5.886;2023-05-14T14:45:25;5.63;;;2.70;;
36799;SDS011;22752;51.960;5.886;2023-05-14T14:47:52;5.22;;;2.90;;
36799;SDS011;22752;51.960;5.886;2023-05-14T14:50:49;7.63;;;3.00;;
36799;SDS011;22752;51.960;5.886;2023-05-14T14:53:16;4.03;;;2.40;;